Campos Verdes, Brazil
Current Conditions -  °F | °C
As of 7:00 PM on Saturday 20 Dec 2014 (Local Time) from SBAN Reporting Station
Broken Clouds Broken Clouds  
Wind Chill: 72°   Ceiling: 8000
Heat Index: 72°   Visibility: 6mi
Dew Point: 64°   Wind: 5mph
Humidity: 78%   Direction: 10°N
Pressure: 29.97"   Gusts: NA
Location:  14.26°S, 49.66°W
Report Text: SBAN 202100Z 01004KT 9999 SCT009 FEW020TCU BKN080 22/18 Q1015
Loading
Personal Weather Stations






























Interactive Weather Map New forecast layout! Learn more

10-Day Weather Forecast

Advertisements
Track Severe Weather on mobile